Time;durP1;ratioP1;P1;durP2;ratioP2;P2;SDS_P1;SDS_P2;PMS_P1;PMS_P2;Temp;Humidity;BMP_temperature;BMP_pressure;BME280_temperature;BME280_humidity;BME280_pressure;Samples;Min_cycle;Max_cycle;Signal;HPM_P1;HPM_P2
2024/03/02 00:01:51;;;;;;;60.90;36.90;;;;;;;7.81;100.00;100342.52;106497;1254;97871;-82
2024/03/02 00:04:37;;;;;;;64.20;37.70;;;;;;;7.79;100.00;100344.42;106484;1254;98092;-82
2024/03/02 00:07:24;;;;;;;65.10;39.60;;;;;;;7.78;100.00;100340.51;106464;1260;99705;-79
2024/03/02 00:10:16;;;;;;;60.50;36.80;;;;;;;7.76;100.00;100340.58;106604;1259;103617;-81
2024/03/02 00:13:01;;;;;;;63.40;37.90;;;;;;;7.74;100.00;100340.73;106489;1254;99215;-79
2024/03/02 00:15:52;;;;;;;62.50;39.40;;;;;;;7.74;100.00;100332.22;106455;1254;97971;-82
2024/03/02 00:18:38;;;;;;;60.90;39.80;;;;;;;7.72;100.00;100329.27;106847;1257;97973;-82
2024/03/02 00:21:27;;;;;;;68.10;41.00;;;;;;;7.71;100.00;100323.54;106773;1257;98373;-81
2024/03/02 00:24:34;;;;;;;61.90;38.80;;;;;;;7.70;100.00;100326.41;106632;1254;101961;-81
2024/03/02 00:27:20;;;;;;;61.60;38.30;;;;;;;7.69;100.00;100328.23;106680;1255;99097;-81
2024/03/02 00:30:34;;;;;;;70.00;40.30;;;;;;;7.67;100.00;100331.26;106482;1254;98095;-80
2024/03/02 00:33:21;;;;;;;61.90;37.80;;;;;;;7.66;100.00;100330.86;106457;1255;97921;-80
2024/03/02 00:36:08;;;;;;;69.70;41.50;;;;;;;7.63;100.00;100329.16;106666;1260;98015;-80
2024/03/02 00:38:54;;;;;;;65.90;40.40;;;;;;;7.61;100.00;100326.76;106692;1254;102687;-81
2024/03/02 00:41:44;;;;;;;61.00;37.10;;;;;;;7.60;100.00;100325.65;106762;1254;99082;-81
2024/03/02 00:44:35;;;;;;;71.60;40.80;;;;;;;7.59;100.00;100318.46;106645;1256;98374;-79
2024/03/02 00:47:20;;;;;;;65.50;40.30;;;;;;;7.59;100.00;100322.90;107825;1254;98053;-81
2024/03/02 00:50:07;;;;;;;64.50;40.20;;;;;;;7.57;100.00;100321.39;106534;1254;98482;-81
2024/03/02 00:52:52;;;;;;;64.20;40.20;;;;;;;7.55;100.00;100317.89;106762;1257;101360;-82
2024/03/02 00:55:38;;;;;;;67.20;39.60;;;;;;;7.52;100.00;100319.64;106484;1254;99163;-80
2024/03/02 00:58:24;;;;;;;65.60;39.40;;;;;;;7.50;100.00;100322.35;106583;1254;99093;-80
2024/03/02 01:01:10;;;;;;;62.20;37.30;;;;;;;7.49;100.00;100323.75;106659;1254;97890;-82
2024/03/02 01:03:56;;;;;;;65.70;39.00;;;;;;;7.49;100.00;100316.52;106637;1254;98657;-80
2024/03/02 01:06:44;;;;;;;61.60;38.40;;;;;;;7.48;100.00;100308.23;106702;1254;101965;-82
2024/03/02 01:09:30;;;;;;;65.00;40.20;;;;;;;7.47;100.00;100300.77;106664;1257;100727;-80
2024/03/02 01:12:15;;;;;;;59.90;38.80;;;;;;;7.44;100.00;100305.11;106718;1254;97781;-81
2024/03/02 01:15:03;;;;;;;63.40;37.80;;;;;;;7.42;100.00;100304.12;106595;1253;98030;-82
2024/03/02 01:17:49;;;;;;;65.20;37.00;;;;;;;7.39;100.00;100300.88;106933;1257;97882;-82
2024/03/02 01:20:36;;;;;;;66.80;38.80;;;;;;;7.36;100.00;100306.75;106610;1257;102565;-81
2024/03/02 01:23:22;;;;;;;62.80;39.00;;;;;;;7.34;100.00;100312.30;106807;1258;99095;-82
2024/03/02 01:26:08;;;;;;;60.30;36.40;;;;;;;7.33;100.00;100314.45;106685;1259;97912;-82
2024/03/02 01:28:53;;;;;;;65.00;39.20;;;;;;;7.31;100.00;100311.44;106621;1260;98034;-82
2024/03/02 01:31:42;;;;;;;61.60;37.50;;;;;;;7.31;100.00;100312.56;106921;1254;98072;-81
2024/03/02 01:34:27;;;;;;;66.40;37.80;;;;;;;7.27;100.00;100309.02;106632;1254;101321;-81
2024/03/02 01:37:13;;;;;;;59.30;39.30;;;;;;;7.24;100.00;100308.38;106542;1254;100391;-82
2024/03/02 01:39:58;;;;;;;58.20;37.60;;;;;;;7.22;100.00;100303.27;106784;1254;97954;-81
2024/03/02 01:42:43;;;;;;;61.80;38.70;;;;;;;7.23;100.00;100299.41;106717;1258;97962;-82
2024/03/02 01:45:29;;;;;;;61.90;38.60;;;;;;;7.23;100.00;100296.92;106870;1254;98457;-81
2024/03/02 01:48:15;;;;;;;58.70;37.60;;;;;;;7.22;100.00;100288.54;106835;1254;101329;-81
2024/03/02 01:51:01;;;;;;;62.70;37.30;;;;;;;7.21;100.00;100288.23;106736;1254;99093;-82
2024/03/02 01:53:46;;;;;;;63.30;37.90;;;;;;;7.21;100.00;100285.64;106734;1257;161966;-81
2024/03/02 01:56:32;;;;;;;66.80;39.30;;;;;;;7.20;100.00;100287.80;106555;1254;97960;-81
2024/03/02 01:59:18;;;;;;;66.60;39.90;;;;;;;7.17;100.00;100283.89;106579;1258;98439;-83
2024/03/02 02:02:04;;;;;;;69.20;39.30;;;;;;;7.15;100.00;100278.47;106622;1254;102487;-81
2024/03/02 02:04:49;;;;;;;63.00;37.90;;;;;;;7.15;100.00;100275.67;106476;1254;99028;-81
2024/03/02 02:07:35;;;;;;;64.50;38.00;;;;;;;7.15;100.00;100275.27;106445;1257;97998;-82
2024/03/02 02:10:21;;;;;;;63.40;37.10;;;;;;;7.15;100.00;100277.96;106361;1257;97957;-81
2024/03/02 02:13:08;;;;;;;58.50;35.80;;;;;;;7.14;100.00;100275.17;106315;1254;98459;-80
2024/03/02 02:15:54;;;;;;;55.60;35.90;;;;;;;7.14;100.00;100273.67;106081;1257;101418;-82
2024/03/02 02:18:40;;;;;;;57.30;35.10;;;;;;;7.11;100.00;100272.68;106357;1254;99076;-82
2024/03/02 02:21:27;;;;;;;58.60;35.20;;;;;;;7.10;100.00;100276.85;106352;1253;98956;-82
2024/03/02 02:24:13;;;;;;;59.10;36.50;;;;;;;7.11;100.00;100280.91;106512;1257;97947;-81
2024/03/02 02:26:58;;;;;;;64.80;38.10;;;;;;;7.10;100.00;100277.66;106812;1254;98475;-83
2024/03/02 02:29:44;;;;;;;63.60;38.10;;;;;;;7.09;100.00;100280.02;106773;1259;102831;-82
2024/03/02 02:32:30;;;;;;;59.40;36.00;;;;;;;7.09;100.00;100279.20;106825;1254;100738;-80
2024/03/02 02:35:15;;;;;;;57.70;35.00;;;;;;;7.10;100.00;100274.62;106662;1254;98983;-81
2024/03/02 02:38:02;;;;;;;59.80;35.70;;;;;;;7.11;100.00;100272.56;106859;1254;97924;-82
2024/03/02 02:40:48;;;;;;;56.60;35.00;;;;;;;7.10;100.00;100267.54;106725;1254;97980;-82
2024/03/02 02:43:33;;;;;;;62.90;37.10;;;;;;;7.09;100.00;100270.40;106782;1257;101401;-82
2024/03/02 02:46:19;;;;;;;57.50;36.80;;;;;;;7.11;100.00;100268.84;106754;1257;99913;-82
2024/03/02 02:49:05;;;;;;;61.30;37.10;;;;;;;7.11;100.00;100267.36;106692;1254;99070;-82
2024/03/02 02:51:50;;;;;;;60.30;37.60;;;;;;;7.12;100.00;100268.64;106639;1260;97858;-82
2024/03/02 02:54:37;;;;;;;65.10;38.10;;;;;;;7.12;100.00;100266.39;106756;1254;98601;-80
2024/03/02 02:57:23;;;;;;;56.70;36.50;;;;;;;7.11;100.00;100262.54;106852;1257;101484;-81
2024/03/02 03:00:18;;;;;;;57.40;34.80;;;;;;;7.12;100.00;100264.76;106856;1254;100697;-83
2024/03/02 03:03:04;;;;;;;65.70;38.10;;;;;;;7.12;100.00;100260.00;106700;1254;97973;-82
2024/03/02 03:05:50;;;;;;;67.80;39.70;;;;;;;7.11;100.00;100257.61;106660;1257;97772;-82
2024/03/02 03:08:35;;;;;;;62.30;37.10;;;;;;;7.12;100.00;100257.30;106744;1253;96455;-80
2024/03/02 03:11:22;;;;;;;62.80;38.40;;;;;;;7.12;100.00;100253.95;106791;1254;102272;-82
2024/03/02 03:14:08;;;;;;;60.60;38.30;;;;;;;7.13;100.00;100253.64;106800;1253;99111;-81
2024/03/02 03:16:53;;;;;;;64.10;37.60;;;;;;;7.14;100.00;100255.80;106632;1257;97833;-82
2024/03/02 03:19:39;;;;;;;66.70;38.60;;;;;;;7.16;100.00;100254.43;106771;1256;97906;-82
2024/03/02 03:22:25;;;;;;;60.50;38.30;;;;;;;7.15;100.00;100250.40;106967;1254;97953;-81
2024/03/02 03:25:11;;;;;;;68.20;40.90;;;;;;;7.15;100.00;100251.80;106750;1253;102264;-82
2024/03/02 03:27:57;;;;;;;60.10;36.80;;;;;;;7.15;100.00;100246.91;106930;1254;100703;-82
2024/03/02 03:30:43;;;;;;;72.30;44.90;;;;;;;7.15;100.00;100245.48;106777;1254;98836;-82
2024/03/02 03:33:28;;;;;;;65.90;41.30;;;;;;;7.15;100.00;100239.92;106779;1254;98016;-82
2024/03/02 03:36:13;;;;;;;71.80;42.70;;;;;;;7.16;100.00;100240.58;106943;1253;97855;-81
2024/03/02 03:38:58;;;;;;;64.70;39.40;;;;;;;7.16;100.00;100236.44;106935;1254;101373;-82
2024/03/02 03:41:44;;;;;;;67.50;42.00;;;;;;;7.17;100.00;100235.77;106626;1256;100356;-82
2024/03/02 03:44:30;;;;;;;67.40;41.20;;;;;;;7.17;100.00;100238.07;106824;1253;98983;-82
2024/03/02 03:47:15;;;;;;;67.30;41.10;;;;;;;7.17;100.00;100234.34;106808;1254;98527;-82
2024/03/02 03:50:01;;;;;;;69.80;38.80;;;;;;;7.18;100.00;100237.67;106722;1253;97839;-82
2024/03/02 03:52:46;;;;;;;68.90;40.00;;;;;;;7.19;100.00;100238.42;106793;1253;101404;-82
2024/03/02 03:55:31;;;;;;;68.80;40.00;;;;;;;7.20;100.00;100241.69;106947;1253;100127;-81
2024/03/02 03:58:18;;;;;;;68.00;40.80;;;;;;;7.22;100.00;100241.30;106782;1254;99540;-80
2024/03/02 04:01:04;;;;;;;67.60;42.10;;;;;;;7.21;100.00;100239.25;106812;1256;97993;-80
2024/03/02 04:03:50;;;;;;;86.00;49.40;;;;;;;7.21;100.00;100236.27;106729;1253;97180;-80
2024/03/02 04:06:36;;;;;;;76.00;45.20;;;;;;;7.20;100.00;100240.79;106766;1253;101932;-81
2024/03/02 04:09:22;;;;;;;73.80;43.50;;;;;;;7.18;100.00;100244.43;106878;1259;100455;-81
2024/03/02 04:12:08;;;;;;;74.40;42.20;;;;;;;7.17;100.00;100245.44;106813;1254;97950;-82
2024/03/02 04:14:53;;;;;;;70.50;42.90;;;;;;;7.16;100.00;100244.94;106561;1253;98046;-81
2024/03/02 04:17:39;;;;;;;69.20;42.50;;;;;;;7.18;100.00;100247.45;106802;1254;97797;-81
2024/03/02 04:20:25;;;;;;;79.10;48.70;;;;;;;7.18;100.00;100251.14;106636;1258;102439;-81
2024/03/02 04:23:10;;;;;;;86.20;51.90;;;;;;;7.19;100.00;100256.58;106828;1255;99112;-81
2024/03/02 04:25:56;;;;;;;85.10;51.90;;;;;;;7.18;100.00;100263.21;106804;1254;99171;-81
2024/03/02 04:28:42;;;;;;;66.80;40.40;;;;;;;7.18;100.00;100265.40;106819;1257;97895;-81
2024/03/02 04:31:27;;;;;;;73.40;42.80;;;;;;;7.17;100.00;100262.58;106797;1254;97909;-82
2024/03/02 04:34:13;;;;;;;75.90;46.00;;;;;;;7.17;100.00;100261.58;106726;1253;102065;-81
2024/03/02 04:36:58;;;;;;;89.70;53.70;;;;;;;7.16;100.00;100259.42;106809;1257;99215;-84
2024/03/02 04:39:44;;;;;;;81.50;48.00;;;;;;;7.14;100.00;100259.02;106681;1253;99065;-81
2024/03/02 04:42:30;;;;;;;87.00;50.60;;;;;;;7.12;100.00;100261.04;106796;1253;97990;-81
2024/03/02 04:45:15;;;;;;;78.40;49.70;;;;;;;7.09;100.00;100256.05;106689;1253;98494;-80
2024/03/02 04:48:00;;;;;;;76.10;45.90;;;;;;;7.07;100.00;100256.50;106609;1262;101491;-83
2024/03/02 04:50:46;;;;;;;74.40;45.40;;;;;;;7.04;100.00;100257.63;106676;1257;101072;-82
2024/03/02 04:53:31;;;;;;;68.50;45.50;;;;;;;6.99;100.00;100256.12;106831;1257;99465;-82
2024/03/02 04:59:08;;;;;;;66.40;42.00;;;;;;;6.92;100.00;100261.14;106916;1253;97857;-82
2024/03/02 05:01:54;;;;;;;61.00;37.40;;;;;;;6.88;100.00;100259.66;106675;1253;102689;-82
2024/03/02 05:04:39;;;;;;;60.10;35.50;;;;;;;6.84;100.00;100260.50;106726;1254;99948;-83
2024/03/02 05:07:25;;;;;;;61.40;36.30;;;;;;;6.82;100.00;100264.30;106679;1254;98225;-82
2024/03/02 05:10:14;;;;;;;128.60;67.00;;;;;;;6.82;100.00;100273.02;106754;1253;97956;-82
2024/03/02 05:12:59;;;;;;;147.30;83.90;;;;;;;6.79;100.00;100272.83;106718;1253;98447;-82
2024/03/02 05:15:46;;;;;;;105.60;60.00;;;;;;;6.77;100.00;100278.19;106878;1254;102135;-82
2024/03/02 05:18:32;;;;;;;70.50;45.90;;;;;;;6.75;100.00;100274.33;106697;1254;99974;-82
2024/03/02 05:21:17;;;;;;;75.90;46.10;;;;;;;6.73;100.00;100282.32;106712;1254;98538;-81
2024/03/02 05:24:03;;;;;;;74.30;47.70;;;;;;;6.72;100.00;100286.39;106779;1254;97909;-82
2024/03/02 05:26:49;;;;;;;65.50;39.30;;;;;;;6.69;100.00;100286.33;106873;1254;98380;-82
2024/03/02 05:29:35;;;;;;;71.10;41.00;;;;;;;6.69;100.00;100291.31;106701;1253;101337;-80
2024/03/02 05:32:20;;;;;;;71.80;42.30;;;;;;;6.69;100.00;100288.74;106845;1254;100951;-81
2024/03/02 05:35:06;;;;;;;68.40;40.20;;;;;;;6.70;100.00;100285.86;106617;1254;97946;-81
2024/03/02 05:37:52;;;;;;;72.50;41.30;;;;;;;6.69;100.00;100285.25;106708;1254;98004;-81
2024/03/02 05:40:37;;;;;;;66.10;37.70;;;;;;;6.68;100.00;100288.58;106708;1254;97867;-81
2024/03/02 05:43:23;;;;;;;70.10;40.80;;;;;;;6.67;100.00;100290.81;106728;1253;101323;-81
2024/03/02 05:46:09;;;;;;;66.70;39.80;;;;;;;6.66;100.00;100292.67;106809;1253;99166;-82
2024/03/02 05:48:54;;;;;;;70.90;39.00;;;;;;;6.63;100.00;100294.42;106652;1254;97867;-81
2024/03/02 05:51:40;;;;;;;67.80;37.30;;;;;;;6.62;100.00;100300.22;106777;1254;97960;-81
2024/03/02 05:54:25;;;;;;;70.40;38.60;;;;;;;6.62;100.00;100301.24;106744;1258;96005;-80
2024/03/02 05:57:22;;;;;;;69.20;39.00;;;;;;;6.62;100.00;100303.73;106685;1259;101331;-80
2024/03/02 06:00:08;;;;;;;64.30;37.20;;;;;;;6.62;100.00;100305.04;106625;1253;99117;-80
2024/03/02 06:02:58;;;;;;;64.60;36.20;;;;;;;6.61;100.00;100302.51;106879;1254;99241;-80
2024/03/02 06:05:43;;;;;;;70.70;40.10;;;;;;;6.61;100.00;100308.36;106741;1253;97899;-80
2024/03/02 06:08:29;;;;;;;71.00;39.20;;;;;;;6.60;100.00;100314.42;106774;1253;97798;-80
2024/03/02 06:11:14;;;;;;;73.30;41.70;;;;;;;6.60;100.00;100314.84;106698;1259;102617;-81
2024/03/02 06:14:00;;;;;;;74.70;40.30;;;;;;;6.60;100.00;100311.30;106701;1254;100957;-81
2024/03/02 06:16:46;;;;;;;80.60;44.20;;;;;;;6.60;100.00;100317.08;106565;1255;97896;-81
2024/03/02 06:19:31;;;;;;;71.20;40.30;;;;;;;6.61;100.00;100320.90;106829;1253;98627;-82
2024/03/02 06:22:17;;;;;;;84.10;45.10;;;;;;;6.61;100.00;100315.94;106776;1257;98491;-81
2024/03/02 06:25:02;;;;;;;81.10;44.80;;;;;;;6.62;100.00;100310.69;106789;1254;102063;-80
2024/03/02 06:27:48;;;;;;;83.70;43.10;;;;;;;6.64;100.00;100312.58;106371;1253;99047;-79
2024/03/02 06:30:33;;;;;;;71.00;39.90;;;;;;;6.65;100.00;100319.27;107025;1253;97954;-81
2024/03/02 06:33:19;;;;;;;86.00;43.90;;;;;;;6.66;100.00;100326.09;106977;1259;97961;-80
2024/03/02 06:36:05;;;;;;;88.60;47.30;;;;;;;6.67;100.00;100320.93;106934;1256;98642;-81
2024/03/02 06:38:50;;;;;;;91.10;49.30;;;;;;;6.70;100.00;100319.60;106723;1254;101368;-82
2024/03/02 06:41:37;;;;;;;89.40;46.20;;;;;;;6.72;100.00;100321.63;106762;1253;100343;-80
2024/03/02 06:44:23;;;;;;;103.10;50.70;;;;;;;6.76;100.00;100322.48;106740;1252;99273;-80
2024/03/02 06:47:08;;;;;;;88.40;46.40;;;;;;;6.77;100.00;100326.42;106819;1253;97947;-82
2024/03/02 06:49:54;;;;;;;96.90;47.10;;;;;;;6.77;100.00;100324.77;106761;1258;98613;-81
2024/03/02 06:52:39;;;;;;;88.40;47.30;;;;;;;6.79;100.00;100330.46;106887;1254;103160;-82
2024/03/02 06:55:24;;;;;;;80.10;42.30;;;;;;;6.81;100.00;100330.42;106914;1261;99101;-82
2024/03/02 06:58:12;;;;;;;81.30;43.20;;;;;;;6.81;100.00;100329.13;106656;1256;99008;-81
2024/03/02 07:00:57;;;;;;;74.20;40.90;;;;;;;6.82;100.00;100334.75;107010;1254;98549;-81
2024/03/02 07:03:45;;;;;;;77.80;43.00;;;;;;;6.84;100.00;100338.23;106876;1253;98591;-82
2024/03/02 07:06:31;;;;;;;79.50;43.60;;;;;;;6.86;100.00;100336.06;106585;1262;102121;-81
2024/03/02 07:09:17;;;;;;;89.90;47.00;;;;;;;6.87;100.00;100334.34;106902;1254;99092;-81
2024/03/02 07:12:03;;;;;;;88.20;46.40;;;;;;;6.86;100.00;100333.73;107002;1254;98939;-80
2024/03/02 07:17:49;;;;;;;89.00;43.40;;;;;;;6.90;100.00;100341.58;106459;1256;97842;-84
2024/03/02 07:20:34;;;;;;;84.00;45.20;;;;;;;6.94;100.00;100343.06;106387;1253;101428;-84
2024/03/02 07:23:24;;;;;;;110.40;54.80;;;;;;;6.96;100.00;100345.00;106422;1253;100383;-84
2024/03/02 07:26:10;;;;;;;101.70;58.40;;;;;;;6.98;100.00;100346.04;106357;1253;99060;-84
2024/03/02 07:28:55;;;;;;;83.90;47.90;;;;;;;6.99;100.00;100348.72;106468;1259;97746;-84
2024/03/02 07:31:41;;;;;;;75.10;42.40;;;;;;;7.02;100.00;100351.87;106467;1253;98022;-85
2024/03/02 07:34:28;;;;;;;75.60;42.80;;;;;;;7.04;100.00;100357.64;106486;1254;101499;-87
2024/03/02 07:37:14;;;;;;;66.00;37.40;;;;;;;7.06;100.00;100358.68;106311;1253;100340;-87
2024/03/02 07:40:00;;;;;;;73.70;40.80;;;;;;;7.08;100.00;100357.06;106123;1254;99085;-85
2024/03/02 07:42:46;;;;;;;74.70;43.10;;;;;;;7.10;100.00;100363.17;106568;1256;97915;-85
2024/03/02 07:45:32;;;;;;;65.70;37.60;;;;;;;7.13;100.00;100363.27;106488;1259;98479;-86
2024/03/02 07:48:18;;;;;;;67.60;39.90;;;;;;;7.16;100.00;100366.98;106259;1259;102751;-85
2024/03/02 07:51:04;;;;;;;70.00;40.60;;;;;;;7.18;100.00;100364.30;106301;1261;100266;-84
2024/03/02 07:53:49;;;;;;;60.00;34.80;;;;;;;7.20;100.00;100367.17;106418;1253;99820;-84
2024/03/02 07:56:35;;;;;;;64.50;35.80;;;;;;;7.24;100.00;100372.43;106716;1258;97935;-81
2024/03/02 07:59:21;;;;;;;63.40;34.60;;;;;;;7.27;100.00;100373.20;106304;1253;97996;-83
2024/03/02 08:02:07;;;;;;;59.30;35.80;;;;;;;7.30;100.00;100375.65;106527;1253;101423;-84
2024/03/02 08:04:53;;;;;;;58.00;34.10;;;;;;;7.35;100.00;100376.89;106612;1254;99178;-84
2024/03/02 08:07:41;;;;;;;58.30;35.80;;;;;;;7.39;100.00;100374.16;106312;1259;97993;-85
2024/03/02 08:10:26;;;;;;;66.70;36.50;;;;;;;7.41;100.00;100375.66;106654;1253;97899;-85
2024/03/02 08:13:12;;;;;;;60.80;35.20;;;;;;;7.46;100.00;100371.06;106377;1255;98454;-84
2024/03/02 08:15:58;;;;;;;65.00;35.40;;;;;;;7.49;100.00;100371.73;106424;1254;102532;-84
2024/03/02 08:18:44;;;;;;;59.20;33.40;;;;;;;7.51;100.00;100367.91;106390;1253;100368;-85
2024/03/02 08:21:32;;;;;;;61.60;35.70;;;;;;;7.54;100.00;100377.40;106306;1259;100186;-84
2024/03/02 08:24:18;;;;;;;60.60;33.50;;;;;;;7.56;100.00;100384.82;106545;1259;98880;-82
2024/03/02 08:27:04;;;;;;;63.30;37.80;;;;;;;7.56;100.00;100380.98;106473;1260;98108;-87
2024/03/02 08:29:50;;;;;;;63.00;34.90;;;;;;;7.57;100.00;100379.70;106375;1253;101400;-83
2024/03/02 08:32:36;;;;;;;57.50;33.70;;;;;;;7.57;100.00;100382.05;106276;1257;99171;-85
2024/03/02 08:35:22;;;;;;;61.20;32.50;;;;;;;7.57;100.00;100383.41;106532;1259;98139;-82
2024/03/02 08:38:08;;;;;;;53.80;31.00;;;;;;;7.57;100.00;100385.91;106569;1253;97991;-85
2024/03/02 08:40:54;;;;;;;54.30;32.10;;;;;;;7.57;100.00;100382.23;107125;1256;96855;-83
2024/03/02 08:43:42;;;;;;;59.90;33.80;;;;;;;7.58;100.00;100386.02;106597;1253;101934;-81
2024/03/02 08:46:28;;;;;;;57.20;32.70;;;;;;;7.58;100.00;100390.08;106450;1253;100046;-83
2024/03/02 08:49:15;;;;;;;59.20;32.90;;;;;;;7.57;100.00;100390.52;106531;1257;97956;-82
2024/03/02 08:52:03;;;;;;;56.60;32.90;;;;;;;7.56;100.00;100391.34;106504;1253;97854;-83
2024/03/02 08:54:49;;;;;;;56.30;33.40;;;;;;;7.57;100.00;100389.20;106297;1253;98453;-84
2024/03/02 08:57:35;;;;;;;56.30;33.20;;;;;;;7.58;100.00;100391.48;106523;1257;101320;-86
2024/03/02 09:00:22;;;;;;;54.90;32.10;;;;;;;7.60;100.00;100390.70;106656;1260;100431;-86
2024/03/02 09:03:09;;;;;;;57.40;31.50;;;;;;;7.63;100.00;100392.20;106579;1253;98634;-89
2024/03/02 09:05:55;;;;;;;52.90;32.80;;;;;;;7.67;100.00;100391.52;106471;1253;97791;-85
2024/03/02 09:08:41;;;;;;;60.50;33.40;;;;;;;7.75;100.00;100388.06;106423;1253;98390;-83
2024/03/02 09:11:27;;;;;;;67.40;37.10;;;;;;;7.81;100.00;100384.59;106300;1253;102447;-82
2024/03/02 09:14:14;;;;;;;60.00;33.90;;;;;;;7.83;100.00;100384.16;106237;1256;99264;-83
2024/03/02 09:17:00;;;;;;;52.60;31.20;;;;;;;7.82;100.00;100380.21;106662;1257;99349;-85
2024/03/02 09:19:46;;;;;;;56.70;32.10;;;;;;;7.82;100.00;100386.27;106260;1254;97937;-82
2024/03/02 09:22:32;;;;;;;53.30;31.80;;;;;;;7.82;100.00;100386.80;106557;1253;97817;-83
2024/03/02 09:25:18;;;;;;;56.30;32.70;;;;;;;7.83;100.00;100385.27;106589;1256;101507;-83
2024/03/02 09:28:04;;;;;;;50.30;29.70;;;;;;;7.83;100.00;100383.30;106395;1254;99183;-84
2024/03/02 09:30:50;;;;;;;55.30;31.10;;;;;;;7.83;100.00;100383.63;106389;1259;97992;-86
2024/03/02 09:33:36;;;;;;;49.60;28.40;;;;;;;7.84;100.00;100383.77;106264;1255;98077;-86
2024/03/02 09:36:23;;;;;;;49.90;28.70;;;;;;;7.85;100.00;100383.83;106298;1262;98361;-85
2024/03/02 09:39:12;;;;;;;54.20;30.50;;;;;;;7.87;100.00;100385.55;106374;1253;101442;-85
2024/03/02 09:42:01;;;;;;;48.80;30.40;;;;;;;7.88;100.00;100382.88;106412;1259;99412;-84
2024/03/02 09:44:48;;;;;;;59.30;33.70;;;;;;;7.91;100.00;100383.59;106557;1260;98977;-88
2024/03/02 09:47:34;;;;;;;60.30;33.40;;;;;;;7.94;100.00;100381.11;106526;1253;97969;-86
2024/03/02 09:50:19;;;;;;;52.20;29.70;;;;;;;7.96;100.00;100385.40;106504;1257;98489;-86
2024/03/02 09:53:15;;;;;;;52.30;29.10;;;;;;;7.98;100.00;100385.63;106772;1256;102334;-87
2024/03/02 09:56:02;;;;;;;51.10;28.30;;;;;;;8.02;100.00;100390.33;106544;1263;101415;-80
2024/03/02 09:58:48;;;;;;;49.30;29.90;;;;;;;8.05;100.00;100394.12;106760;1256;99171;-80
2024/03/02 10:01:33;;;;;;;51.10;29.60;;;;;;;8.08;100.00;100388.52;106849;1258;97986;-80
2024/03/02 10:04:19;;;;;;;58.60;32.10;;;;;;;8.14;100.00;100387.12;107068;1256;98457;-80
2024/03/02 10:07:16;;;;;;;50.00;28.90;;;;;;;8.17;100.00;100385.23;106714;1254;101372;-79
2024/03/02 10:10:13;;;;;;;51.70;30.60;;;;;;;8.20;100.00;100379.39;107011;1256;100851;-79
2024/03/02 10:13:12;;;;;;;57.50;32.10;;;;;;;8.22;100.00;100377.10;106591;1259;98708;-79
2024/03/02 10:16:12;;;;;;;49.50;28.60;;;;;;;8.26;100.00;100373.50;106430;1256;97759;-79
2024/03/02 10:18:57;;;;;;;51.00;30.30;;;;;;;8.29;100.00;100371.75;106470;1254;97917;-80
2024/03/02 10:21:44;;;;;;;50.80;29.40;;;;;;;8.32;100.00;100371.02;106000;1257;101310;-79
2024/03/02 10:24:44;;;;;;;54.60;31.40;;;;;;;8.34;100.00;100368.02;106588;1256;100492;-79
2024/03/02 10:27:31;;;;;;;48.50;29.10;;;;;;;8.35;100.00;100368.75;106327;1259;97790;-79
2024/03/02 10:30:17;;;;;;;49.60;28.50;;;;;;;8.37;100.00;100366.90;106304;1259;98035;-79
2024/03/02 10:33:03;;;;;;;50.40;29.60;;;;;;;8.39;100.00;100367.91;106316;1259;98472;-80
2024/03/02 10:35:50;;;;;;;51.80;29.30;;;;;;;8.40;100.00;100368.27;106314;1256;101393;-87
2024/03/02 10:38:36;;;;;;;48.80;28.50;;;;;;;8.41;100.00;100368.23;106319;1259;100379;-85
2024/03/02 10:41:23;;;;;;;44.20;27.60;;;;;;;8.44;100.00;100368.21;106772;1259;100454;-84
2024/03/02 10:44:09;;;;;;;52.70;29.10;;;;;;;8.47;100.00;100362.45;106777;1255;97880;-79
2024/03/02 10:46:56;;;;;;;54.20;29.50;;;;;;;8.52;100.00;100358.88;106718;1255;98572;-80
2024/03/02 10:49:43;;;;;;;47.90;27.80;;;;;;;8.57;100.00;100360.43;106725;1259;101377;-81
2024/03/02 10:52:29;;;;;;;51.90;29.20;;;;;;;8.60;100.00;100361.46;106761;1261;99156;-81
2024/03/02 10:55:15;;;;;;;53.50;29.90;;;;;;;8.63;100.00;100361.17;106731;1259;97887;-80
2024/03/02 10:58:06;;;;;;;52.60;29.80;;;;;;;8.65;100.00;100362.61;106838;1256;98819;-80
2024/03/02 11:00:52;;;;;;;54.20;29.80;;;;;;;8.69;100.00;100358.62;106736;1259;98478;-81
2024/03/02 11:03:40;;;;;;;51.50;29.00;;;;;;;8.75;100.00;100358.70;106930;1256;101383;-81
2024/03/02 11:06:28;;;;;;;49.10;27.40;;;;;;;8.79;100.00;100353.48;106776;1256;100543;-81
2024/03/02 11:09:16;;;;;;;53.40;29.10;;;;;;;8.84;100.00;100351.91;106857;1258;99259;-81
2024/03/02 11:12:36;;;;;;;51.50;27.70;;;;;;;8.86;100.00;100345.71;106754;1256;98045;-80
2024/03/02 11:15:26;;;;;;;49.60;28.00;;;;;;;8.90;100.00;100345.27;106736;1255;98056;-80
2024/03/02 11:18:14;;;;;;;54.10;30.20;;;;;;;8.96;100.00;100350.24;106741;1255;102184;-80
2024/03/02 11:21:00;;;;;;;49.90;28.70;;;;;;;9.02;100.00;100347.36;106618;1259;100741;-80
2024/03/02 11:23:45;;;;;;;53.80;29.90;;;;;;;9.07;100.00;100338.58;106761;1255;97848;-80
2024/03/02 11:26:39;;;;;;;56.90;29.40;;;;;;;9.10;100.00;100338.34;106712;1256;98616;-80
2024/03/02 11:29:40;;;;;;;47.90;28.10;;;;;;;9.13;100.00;100337.65;106792;1256;97780;-80
2024/03/02 11:32:25;;;;;;;46.10;28.60;;;;;;;9.15;100.00;100337.43;106401;1258;101655;-80
2024/03/02 11:35:11;;;;;;;47.60;28.00;;;;;;;9.18;100.00;100331.38;106716;1257;107575;-79
2024/03/02 11:37:58;;;;;;;55.40;28.80;;;;;;;9.20;100.00;100336.85;106033;1259;97932;-79
2024/03/02 11:40:44;;;;;;;47.80;27.80;;;;;;;9.23;100.00;100337.70;106245;1255;97924;-80
2024/03/02 11:43:30;;;;;;;48.00;28.30;;;;;;;9.26;100.00;100330.76;106137;1259;97861;-80
2024/03/02 11:46:15;;;;;;;42.90;26.50;;;;;;;9.29;100.00;100323.73;106550;1259;102772;-80
2024/03/02 11:49:01;;;;;;;52.30;28.70;;;;;;;9.35;100.00;100326.80;106809;1254;100466;-80
2024/03/02 11:52:01;;;;;;;50.50;29.10;;;;;;;9.41;100.00;100327.55;106123;1257;97987;-81
2024/03/02 11:54:48;;;;;;;46.90;28.00;;;;;;;9.46;100.00;100326.21;106704;1259;97880;-81
2024/03/02 11:57:34;;;;;;;46.40;27.00;;;;;;;9.49;100.00;100329.71;106733;1256;98045;-80
2024/03/02 12:00:20;;;;;;;46.20;27.00;;;;;;;9.53;100.00;100326.96;106648;1257;101407;-81
2024/03/02 12:03:12;;;;;;;46.80;27.60;;;;;;;9.57;100.00;100327.31;106846;1259;100374;-81
2024/03/02 12:05:57;;;;;;;46.90;27.50;;;;;;;9.60;100.00;100331.13;106754;1257;99075;-80
2024/03/02 12:08:44;;;;;;;46.20;27.70;;;;;;;9.61;100.00;100323.75;106723;1256;97990;-82
2024/03/02 12:11:30;;;;;;;51.00;29.00;;;;;;;9.62;100.00;100324.33;106767;1255;98062;-80
2024/03/02 12:14:15;;;;;;;53.50;29.60;;;;;;;9.61;100.00;100323.17;106677;1257;103099;-80
2024/03/02 12:17:01;;;;;;;55.40;30.80;;;;;;;9.63;100.00;100321.95;106781;1256;99688;-80
2024/03/02 12:19:47;;;;;;;49.30;26.50;;;;;;;9.64;100.00;100321.77;106675;1256;97926;-79
2024/03/02 12:22:34;;;;;;;49.30;26.50;;;;;;;9.65;100.00;100324.86;106154;1259;98012;-78
2024/03/02 12:25:21;;;;;;;46.10;27.00;;;;;;;9.66;100.00;100327.20;106299;1254;97910;-81
2024/03/02 12:28:06;;;;;;;48.10;26.90;;;;;;;9.69;100.00;100327.58;106989;1255;102104;-79
2024/03/02 12:30:52;;;;;;;49.60;26.70;;;;;;;9.73;100.00;100327.09;106794;1256;100048;-80
2024/03/02 12:33:37;;;;;;;45.20;27.90;;;;;;;9.77;100.00;100326.89;106812;1257;97874;-82